createdAt,value
2017-12-16T00:01:51.101Z,5.60
2017-12-16T00:04:17.372Z,5.60
2017-12-16T00:06:43.722Z,5.60
2017-12-16T00:09:10.034Z,5.70
2017-12-16T00:11:36.313Z,5.70
2017-12-16T00:14:03.306Z,5.60
2017-12-16T00:16:30.285Z,5.60
2017-12-16T00:18:56.603Z,5.60
2017-12-16T00:21:22.916Z,5.60
2017-12-16T00:23:52.653Z,5.50
2017-12-16T00:26:18.905Z,5.80
2017-12-16T00:28:45.165Z,5.60
2017-12-16T00:31:11.470Z,5.70
2017-12-16T00:33:37.766Z,5.70
2017-12-16T00:36:04.075Z,5.70
2017-12-16T00:38:30.362Z,5.70
2017-12-16T00:40:59.284Z,5.60
2017-12-16T00:43:25.591Z,5.60
2017-12-16T00:45:52.661Z,5.50
2017-12-16T00:48:22.752Z,5.50
2017-12-16T00:50:49.042Z,5.50
2017-12-16T00:53:16.072Z,5.50
2017-12-16T00:55:42.358Z,5.50
2017-12-16T00:58:08.642Z,5.60
2017-12-16T01:00:34.925Z,5.60
2017-12-16T01:03:01.215Z,5.50
2017-12-16T01:05:27.536Z,5.30
2017-12-16T01:07:53.829Z,5.20
2017-12-16T01:10:20.117Z,5.40
2017-12-16T01:12:47.117Z,5.20
2017-12-16T01:15:13.433Z,5.20
2017-12-16T01:17:40.522Z,5.30
2017-12-16T01:20:07.537Z,5.30
2017-12-16T01:22:34.708Z,5.30
2017-12-16T01:25:00.969Z,5.50
2017-12-16T01:27:27.334Z,5.40
2017-12-16T01:29:53.649Z,5.40
2017-12-16T01:32:19.905Z,5.30
2017-12-16T01:34:58.521Z,5.30
2017-12-16T01:37:37.120Z,5.40
2017-12-16T01:40:03.479Z,5.30
2017-12-16T01:42:30.357Z,5.40
2017-12-16T01:44:56.635Z,5.40
2017-12-16T01:47:22.925Z,5.40
2017-12-16T01:49:49.202Z,5.40
2017-12-16T01:52:15.481Z,5.30
2017-12-16T01:54:42.136Z,5.30
2017-12-16T01:57:09.146Z,5.30
2017-12-16T01:59:35.469Z,5.30
2017-12-16T02:02:01.738Z,5.20
2017-12-16T02:04:28.012Z,5.00
2017-12-16T02:06:55.417Z,5.30
2017-12-16T02:09:21.816Z,5.20
2017-12-16T02:11:48.141Z,5.30
2017-12-16T02:14:15.179Z,5.40
2017-12-16T02:16:41.437Z,5.40
2017-12-16T02:19:07.745Z,5.30
2017-12-16T02:21:34.742Z,5.30
2017-12-16T02:24:01.061Z,5.30
2017-12-16T02:26:27.341Z,5.20
2017-12-16T02:28:53.626Z,5.20
2017-12-16T02:31:19.950Z,5.20
2017-12-16T02:33:46.246Z,5.30
2017-12-16T02:36:12.518Z,5.30
2017-12-16T02:38:38.801Z,5.30
2017-12-16T02:41:05.798Z,5.10
2017-12-16T02:43:32.065Z,4.80
2017-12-16T02:45:58.337Z,5.20
2017-12-16T02:48:24.615Z,5.30
2017-12-16T02:50:50.896Z,5.40
2017-12-16T02:53:17.901Z,5.10
2017-12-16T02:55:44.164Z,5.10
2017-12-16T02:58:10.465Z,5.20
2017-12-16T03:00:36.793Z,5.30
2017-12-16T03:03:03.825Z,5.20
2017-12-16T03:05:30.089Z,5.20
2017-12-16T03:07:57.106Z,5.40
2017-12-16T03:10:23.365Z,5.40
2017-12-16T03:12:49.718Z,5.40
2017-12-16T03:15:16.736Z,5.30
2017-12-16T03:17:43.021Z,5.30
2017-12-16T03:20:09.270Z,5.40
2017-12-16T03:22:35.554Z,5.40
2017-12-16T03:25:01.880Z,5.40
2017-12-16T03:27:28.157Z,5.20
2017-12-16T03:29:54.405Z,5.30
2017-12-16T03:32:20.706Z,5.20
2017-12-16T03:34:47.685Z,5.30
2017-12-16T03:37:13.962Z,5.30
2017-12-16T03:39:40.231Z,5.40
2017-12-16T03:42:07.214Z,5.40
2017-12-16T03:44:33.469Z,5.40
2017-12-16T03:46:59.734Z,5.50
2017-12-16T03:49:25.994Z,5.60
2017-12-16T03:51:52.994Z,5.40
2017-12-16T03:54:19.471Z,5.40
2017-12-16T03:56:45.759Z,5.40
2017-12-16T03:59:11.914Z,5.50
2017-12-16T04:01:38.069Z,5.50
2017-12-16T04:04:04.113Z,5.50
2017-12-16T04:06:30.174Z,5.40
2017-12-16T04:08:56.245Z,5.30
2017-12-16T04:11:22.318Z,5.30
2017-12-16T04:13:49.173Z,5.30
2017-12-16T04:16:15.254Z,5.30
2017-12-16T04:18:42.058Z,5.20
2017-12-16T04:21:08.302Z,5.30
2017-12-16T04:23:34.357Z,5.30
2017-12-16T04:26:00.413Z,5.40
2017-12-16T04:28:26.546Z,5.30
2017-12-16T04:30:52.612Z,5.30
2017-12-16T04:33:18.713Z,5.20
2017-12-16T04:35:44.771Z,5.50
2017-12-16T04:38:11.598Z,5.40
2017-12-16T04:40:37.698Z,5.40
2017-12-16T04:43:06.799Z,5.20
2017-12-16T04:45:32.853Z,5.30
2017-12-16T04:47:58.916Z,5.20
2017-12-16T04:50:24.981Z,5.30
2017-12-16T04:52:51.046Z,5.10
2017-12-16T04:55:17.633Z,5.30
2017-12-16T04:57:43.689Z,5.40
2017-12-16T05:00:10.702Z,5.20
2017-12-16T05:02:36.803Z,5.10
2017-12-16T05:05:02.863Z,5.00
2017-12-16T05:07:29.689Z,5.30
2017-12-16T05:09:55.737Z,5.30
2017-12-16T05:12:23.911Z,5.00
2017-12-16T05:14:49.998Z,4.90
2017-12-16T05:17:16.790Z,4.60
2017-12-16T05:19:42.870Z,4.60
2017-12-16T05:22:08.930Z,4.60
2017-12-16T05:24:35.742Z,4.70
2017-12-16T05:27:01.834Z,4.60
2017-12-16T05:29:27.884Z,4.40
2017-12-16T05:31:53.978Z,4.50
2017-12-16T05:34:20.042Z,4.30
2017-12-16T05:36:46.118Z,4.30
2017-12-16T05:39:12.180Z,4.50
2017-12-16T05:41:38.233Z,4.50
2017-12-16T05:44:05.040Z,4.80
2017-12-16T05:46:31.112Z,4.80
2017-12-16T05:48:57.173Z,4.80
2017-12-16T05:51:24.009Z,4.70
2017-12-16T05:53:50.101Z,4.70
2017-12-16T05:56:16.169Z,4.60
2017-12-16T05:58:42.237Z,4.70
2017-12-16T06:01:09.033Z,4.60
2017-12-16T06:03:35.097Z,4.60
2017-12-16T06:06:01.155Z,4.60
2017-12-16T06:08:27.217Z,4.60
2017-12-16T06:10:54.020Z,4.60
2017-12-16T06:13:20.086Z,4.60
2017-12-16T06:15:46.901Z,4.60
2017-12-16T06:18:12.986Z,4.60
2017-12-16T06:20:39.793Z,4.70
2017-12-16T06:23:05.866Z,4.70
2017-12-16T06:25:31.937Z,4.70
2017-12-16T06:27:58.017Z,4.80
2017-12-16T06:30:24.426Z,4.70
2017-12-16T06:32:50.527Z,4.70
2017-12-16T06:35:16.709Z,4.70
2017-12-16T06:37:42.769Z,4.70
2017-12-16T06:40:08.838Z,4.70
2017-12-16T06:42:34.903Z,4.80
2017-12-16T06:45:00.970Z,4.80
2017-12-16T06:47:27.030Z,4.60
2017-12-16T06:49:53.106Z,4.60
2017-12-16T06:52:19.898Z,4.70
2017-12-16T06:54:45.963Z,4.70
2017-12-16T06:57:12.074Z,4.80
2017-12-16T06:59:38.157Z,4.90
2017-12-16T07:02:04.229Z,4.50
2017-12-16T07:04:30.292Z,4.80
2017-12-16T07:06:56.365Z,4.80
2017-12-16T07:09:22.424Z,4.70
2017-12-16T07:11:49.251Z,5.00
2017-12-16T07:14:15.320Z,4.60
2017-12-16T07:16:42.124Z,4.50
2017-12-16T07:19:08.270Z,4.50
2017-12-16T07:21:34.359Z,4.70
2017-12-16T07:24:01.161Z,4.80
2017-12-16T07:26:27.228Z,4.70
2017-12-16T07:28:54.034Z,4.60
2017-12-16T07:31:20.094Z,4.60
2017-12-16T07:33:46.149Z,4.50
2017-12-16T07:36:12.217Z,4.40
2017-12-16T07:38:39.062Z,4.30
2017-12-16T07:41:05.925Z,4.50
2017-12-16T07:43:32.729Z,4.50
2017-12-16T07:45:58.790Z,4.50
2017-12-16T07:48:24.888Z,4.50
2017-12-16T07:50:50.977Z,4.20
2017-12-16T07:53:17.115Z,4.10
2017-12-16T07:55:43.169Z,4.40
2017-12-16T07:58:10.718Z,4.20
2017-12-16T08:00:36.801Z,4.20
2017-12-16T08:03:02.874Z,4.60
2017-12-16T08:05:28.978Z,4.50
2017-12-16T08:07:55.042Z,4.50
2017-12-16T08:10:21.138Z,4.30
2017-12-16T08:12:47.294Z,4.40
2017-12-16T08:15:13.372Z,4.40
2017-12-16T08:17:39.439Z,4.40
2017-12-16T08:20:06.253Z,4.40
2017-12-16T08:22:32.625Z,4.40
2017-12-16T08:24:58.697Z,4.40
2017-12-16T08:27:24.874Z,4.50
2017-12-16T08:29:54.665Z,4.60
2017-12-16T08:32:20.716Z,4.70
2017-12-16T08:34:46.769Z,4.50
2017-12-16T08:37:12.824Z,4.60
2017-12-16T08:39:38.918Z,4.80
2017-12-16T08:42:05.161Z,4.80
2017-12-16T08:44:31.217Z,4.90
2017-12-16T08:46:57.300Z,4.90
2017-12-16T08:49:24.123Z,5.00
2017-12-16T08:51:50.939Z,5.00
2017-12-16T08:54:17.084Z,5.00
2017-12-16T08:56:43.155Z,4.80
2017-12-16T08:59:10.498Z,4.90
2017-12-16T09:01:36.586Z,5.00
2017-12-16T09:04:05.216Z,4.90
2017-12-16T09:06:31.400Z,4.90
2017-12-16T09:08:57.783Z,4.90
2017-12-16T09:11:24.594Z,4.90
2017-12-16T09:13:50.669Z,4.90
2017-12-16T09:16:17.480Z,5.00
2017-12-16T09:18:43.547Z,5.00
2017-12-16T09:21:09.614Z,5.10
2017-12-16T09:23:35.683Z,5.00
2017-12-16T09:26:01.785Z,5.00
2017-12-16T09:28:28.572Z,4.90
2017-12-16T09:30:54.629Z,4.80
2017-12-16T09:33:20.689Z,4.90
2017-12-16T09:35:47.513Z,4.90
2017-12-16T09:38:13.556Z,4.90
2017-12-16T09:40:39.626Z,5.00
2017-12-16T09:43:06.426Z,4.90
2017-12-16T09:45:32.475Z,4.90
2017-12-16T09:47:58.605Z,5.00
2017-12-16T09:50:24.696Z,5.00
2017-12-16T09:52:51.582Z,5.20
2017-12-16T09:55:17.682Z,5.20
2017-12-16T09:57:44.479Z,5.30
2017-12-16T10:00:10.529Z,5.30
2017-12-16T10:02:36.661Z,5.20
2017-12-16T10:05:02.781Z,5.20
2017-12-16T10:07:28.841Z,5.30
2017-12-16T10:09:54.948Z,5.40
2017-12-16T10:12:21.758Z,5.40
2017-12-16T10:14:51.429Z,5.40
2017-12-16T10:17:17.516Z,5.60
2017-12-16T10:19:43.600Z,5.80
2017-12-16T10:22:10.393Z,5.60
2017-12-16T10:24:36.448Z,5.60
2017-12-16T10:27:02.532Z,5.50
2017-12-16T10:29:28.639Z,5.70
2017-12-16T10:31:54.708Z,5.60
2017-12-16T10:34:21.524Z,5.50
2017-12-16T10:36:47.576Z,5.50
2017-12-16T10:39:13.661Z,5.80
2017-12-16T10:41:40.453Z,5.40
2017-12-16T10:44:06.512Z,5.40
2017-12-16T10:46:32.574Z,5.50
2017-12-16T10:48:58.616Z,5.60
2017-12-16T10:51:24.684Z,5.90
2017-12-16T10:53:50.751Z,6.30
2017-12-16T10:56:16.817Z,6.50
2017-12-16T10:58:42.866Z,6.60
2017-12-16T11:01:08.989Z,7.10
2017-12-16T11:03:35.681Z,7.30
2017-12-16T11:06:02.845Z,6.50
2017-12-16T11:08:28.944Z,6.50
2017-12-16T11:10:55.062Z,6.30
2017-12-16T11:13:21.130Z,6.20
2017-12-16T11:15:48.005Z,5.90
2017-12-16T11:18:14.206Z,5.90
2017-12-16T11:20:40.248Z,6.50
2017-12-16T11:23:06.297Z,6.20
2017-12-16T11:25:33.112Z,6.30
2017-12-16T11:27:59.173Z,6.30
2017-12-16T11:30:25.256Z,6.20
2017-12-16T11:32:51.322Z,5.90
2017-12-16T11:35:17.395Z,5.80
2017-12-16T11:37:43.486Z,6.10
2017-12-16T11:40:09.567Z,6.20
2017-12-16T11:42:35.626Z,6.30
2017-12-16T11:45:02.486Z,6.10
2017-12-16T11:47:28.560Z,6.10
2017-12-16T11:49:54.654Z,6.10
2017-12-16T11:52:22.877Z,6.30
2017-12-16T11:54:49.123Z,6.20
2017-12-16T11:57:15.390Z,6.30
2017-12-16T11:59:41.666Z,6.30
2017-12-16T12:02:08.842Z,6.10
2017-12-16T12:04:35.872Z,6.00
2017-12-16T12:07:02.141Z,6.00
2017-12-16T12:09:28.403Z,6.00
2017-12-16T12:11:58.933Z,6.20
2017-12-16T12:14:25.182Z,6.10
2017-12-16T12:16:54.841Z,6.20
2017-12-16T12:19:21.114Z,6.10
2017-12-16T12:21:47.369Z,6.00
2017-12-16T12:24:14.485Z,6.30
2017-12-16T12:26:40.761Z,6.60
2017-12-16T12:29:07.028Z,6.50
2017-12-16T12:31:34.029Z,6.90
2017-12-16T12:34:00.311Z,6.90
2017-12-16T12:36:26.613Z,6.90
2017-12-16T12:38:52.956Z,6.90
2017-12-16T12:41:19.272Z,6.80
2017-12-16T12:43:45.549Z,6.80
2017-12-16T12:46:12.973Z,6.60
2017-12-16T12:48:39.969Z,6.50
2017-12-16T12:51:06.224Z,6.50
2017-12-16T12:53:32.464Z,6.80
2017-12-16T12:55:58.757Z,7.00
2017-12-16T12:58:24.985Z,6.80
2017-12-16T13:00:52.048Z,6.80
2017-12-16T13:03:18.349Z,6.80
2017-12-16T13:05:44.605Z,6.90
2017-12-16T13:08:10.934Z,6.50
2017-12-16T13:10:37.203Z,6.70
2017-12-16T13:13:03.501Z,6.40
2017-12-16T13:15:29.778Z,6.30
2017-12-16T13:17:56.013Z,6.30
2017-12-16T13:20:22.312Z,6.20
2017-12-16T13:22:48.766Z,6.20
2017-12-16T13:25:15.073Z,6.30
2017-12-16T13:27:42.097Z,6.50
2017-12-16T13:30:08.378Z,6.40
2017-12-16T13:32:34.658Z,6.50
2017-12-16T13:35:00.934Z,6.00
2017-12-16T13:37:28.744Z,6.20
2017-12-16T13:39:54.992Z,6.20
2017-12-16T13:42:22.123Z,6.20
2017-12-16T13:44:48.390Z,6.20
2017-12-16T13:47:14.684Z,6.20
2017-12-16T13:49:41.689Z,6.20
2017-12-16T13:52:12.828Z,6.20
2017-12-16T13:54:39.833Z,6.00
2017-12-16T13:57:06.232Z,6.00
2017-12-16T13:59:32.498Z,6.00
2017-12-16T14:01:58.764Z,6.00
2017-12-16T14:04:25.057Z,6.00
2017-12-16T14:06:57.207Z,6.10
2017-12-16T14:09:23.546Z,6.10
2017-12-16T14:11:49.845Z,6.10
2017-12-16T14:14:16.162Z,6.10
2017-12-16T14:16:42.478Z,6.10
2017-12-16T14:19:08.716Z,6.10
2017-12-16T14:21:34.984Z,6.20
2017-12-16T14:24:03.710Z,6.00
2017-12-16T14:26:32.723Z,6.00
2017-12-16T14:28:58.963Z,5.80
2017-12-16T14:31:25.214Z,5.70
2017-12-16T14:33:51.501Z,5.90
2017-12-16T14:36:17.804Z,5.80
2017-12-16T14:38:44.132Z,5.90
2017-12-16T14:41:10.537Z,6.00
2017-12-16T14:43:36.840Z,5.80
2017-12-16T14:46:03.121Z,5.90
2017-12-16T14:48:29.374Z,6.10
2017-12-16T14:50:55.619Z,6.10
2017-12-16T14:53:21.866Z,6.20
2017-12-16T14:55:48.159Z,6.00
2017-12-16T14:58:14.507Z,6.10
2017-12-16T15:00:40.765Z,6.10
2017-12-16T15:03:07.073Z,6.00
2017-12-16T15:05:34.163Z,5.80
2017-12-16T15:08:01.271Z,5.80
2017-12-16T15:10:28.135Z,5.90
2017-12-16T15:12:54.466Z,5.60
2017-12-16T15:15:20.717Z,5.90
2017-12-16T15:17:47.002Z,6.00
2017-12-16T15:20:13.257Z,6.00
2017-12-16T15:22:39.565Z,5.90
2017-12-16T15:25:05.820Z,6.00
2017-12-16T15:27:34.218Z,6.20
2017-12-16T15:30:00.533Z,6.00
2017-12-16T15:32:26.795Z,5.80
2017-12-16T15:34:53.118Z,5.70
2017-12-16T15:37:19.445Z,5.60
2017-12-16T15:39:45.787Z,5.70
2017-12-16T15:42:12.167Z,5.80
2017-12-16T15:44:40.442Z,5.80
2017-12-16T15:47:06.718Z,5.70
2017-12-16T15:49:33.010Z,5.90
2017-12-16T15:51:59.277Z,5.70
2017-12-16T15:54:25.536Z,5.90
2017-12-16T15:56:51.853Z,6.00
2017-12-16T15:59:18.836Z,6.00
2017-12-16T16:01:46.697Z,6.00
2017-12-16T16:04:13.850Z,6.00
2017-12-16T16:06:40.873Z,5.90
2017-12-16T16:09:07.135Z,5.80
2017-12-16T16:11:34.162Z,5.90
2017-12-16T16:14:00.441Z,5.80
2017-12-16T16:16:30.917Z,5.70
2017-12-16T16:18:57.167Z,5.60
2017-12-16T16:21:24.206Z,5.50
2017-12-16T16:23:50.506Z,5.50
2017-12-16T16:26:16.756Z,5.30
2017-12-16T16:28:43.039Z,5.30
2017-12-16T16:31:09.325Z,5.20
2017-12-16T16:33:40.009Z,5.20
2017-12-16T16:36:06.266Z,5.30
2017-12-16T16:38:32.565Z,5.40
2017-12-16T16:40:59.709Z,5.10
2017-12-16T16:43:26.790Z,4.90
2017-12-16T16:45:53.087Z,4.90
2017-12-16T16:48:20.106Z,5.10
2017-12-16T16:50:51.629Z,5.10
2017-12-16T16:53:18.705Z,5.00
2017-12-16T16:55:44.984Z,5.00
2017-12-16T16:58:11.288Z,4.80
2017-12-16T17:00:38.454Z,4.80
2017-12-16T17:03:04.744Z,4.80
2017-12-16T17:05:31.009Z,4.90
2017-12-16T17:07:57.305Z,4.80
2017-12-16T17:10:27.563Z,4.90
2017-12-16T17:12:53.862Z,4.90
2017-12-16T17:15:20.922Z,4.90
2017-12-16T17:17:48.031Z,4.90
2017-12-16T17:20:14.302Z,4.90
2017-12-16T17:22:40.562Z,4.80
2017-12-16T17:25:06.841Z,5.00
2017-12-16T17:27:33.847Z,5.10
2017-12-16T17:30:01.967Z,5.10
2017-12-16T17:32:28.293Z,5.20
2017-12-16T17:34:54.532Z,5.00
2017-12-16T17:37:20.820Z,4.90
2017-12-16T17:39:47.097Z,4.90
2017-12-16T17:42:14.094Z,4.80
2017-12-16T17:44:40.359Z,4.80
2017-12-16T17:47:11.697Z,4.80
2017-12-16T17:49:37.938Z,4.80
2017-12-16T17:52:04.225Z,4.90
2017-12-16T17:54:30.446Z,5.00
2017-12-16T17:56:56.707Z,5.00
2017-12-16T17:59:22.983Z,4.80
2017-12-16T18:01:49.233Z,4.80
2017-12-16T18:04:17.688Z,4.80
2017-12-16T18:06:44.065Z,4.70
2017-12-16T18:09:10.759Z,4.70
2017-12-16T18:11:37.040Z,4.70
2017-12-16T18:14:03.276Z,4.60
2017-12-16T18:16:30.259Z,4.60
2017-12-16T18:18:56.529Z,4.60
2017-12-16T18:21:22.777Z,4.60
2017-12-16T18:23:49.025Z,4.50
2017-12-16T18:26:17.361Z,4.60
2017-12-16T18:28:44.361Z,4.60
2017-12-16T18:31:11.155Z,4.60
2017-12-16T18:33:37.450Z,4.70
2017-12-16T18:36:03.741Z,4.70
2017-12-16T18:38:30.163Z,4.70
2017-12-16T18:41:03.308Z,4.80
2017-12-16T18:43:29.549Z,4.80
2017-12-16T18:45:55.912Z,4.70
2017-12-16T18:48:22.170Z,4.70
2017-12-16T18:50:48.490Z,4.70
2017-12-16T18:53:14.769Z,4.70
2017-12-16T18:55:41.765Z,4.40
2017-12-16T18:58:09.824Z,4.40
2017-12-16T19:00:36.099Z,4.60
2017-12-16T19:03:03.142Z,4.60
2017-12-16T19:05:29.544Z,4.50
2017-12-16T19:07:55.772Z,4.60
2017-12-16T19:10:22.032Z,4.60
2017-12-16T19:12:49.062Z,4.50
2017-12-16T19:15:15.338Z,4.50
2017-12-16T19:17:45.174Z,4.60
2017-12-16T19:20:11.538Z,4.60
2017-12-16T19:22:37.820Z,4.60
2017-12-16T19:25:04.095Z,4.60
2017-12-16T19:27:30.365Z,4.60
2017-12-16T19:29:57.367Z,4.40
2017-12-16T19:32:24.353Z,4.40
2017-12-16T19:34:54.044Z,4.40
2017-12-16T19:37:21.123Z,4.40
2017-12-16T19:39:47.406Z,4.40
2017-12-16T19:42:13.698Z,4.30
2017-12-16T19:44:40.034Z,4.40
2017-12-16T19:47:06.324Z,4.40
2017-12-16T19:49:32.706Z,4.40
2017-12-16T19:52:04.057Z,4.40
2017-12-16T19:54:31.094Z,4.50
2017-12-16T19:56:57.358Z,4.50
2017-12-16T19:59:23.628Z,4.40
2017-12-16T20:01:49.925Z,4.50
2017-12-16T20:04:16.897Z,4.50
2017-12-16T20:06:43.144Z,4.50
2017-12-16T20:09:17.861Z,4.50
2017-12-16T20:11:44.178Z,4.50
2017-12-16T20:14:10.453Z,4.40
2017-12-16T20:16:36.697Z,4.30
2017-12-16T20:19:03.025Z,4.30
2017-12-16T20:21:30.054Z,4.30
2017-12-16T20:23:56.328Z,4.30
2017-12-16T20:26:22.557Z,4.30
2017-12-16T20:28:52.678Z,4.30
2017-12-16T20:31:19.022Z,4.50
2017-12-16T20:33:45.281Z,4.50
2017-12-16T20:36:11.526Z,4.60
2017-12-16T20:38:37.804Z,4.30
2017-12-16T20:41:04.053Z,4.30
2017-12-16T20:43:30.464Z,4.30
2017-12-16T20:45:56.749Z,4.40
2017-12-16T20:48:27.661Z,4.60
2017-12-16T20:50:53.933Z,4.50
2017-12-16T20:53:20.309Z,4.60
2017-12-16T20:55:46.558Z,4.30
2017-12-16T20:58:12.788Z,4.60
2017-12-16T21:00:39.225Z,4.30
2017-12-16T21:03:05.493Z,4.30
2017-12-16T21:05:31.706Z,4.50
2017-12-16T21:08:04.605Z,4.40
2017-12-16T21:10:30.909Z,4.50
2017-12-16T21:12:57.169Z,4.40
2017-12-16T21:15:23.391Z,4.40
2017-12-16T21:17:49.729Z,4.30
2017-12-16T21:20:15.998Z,4.30
2017-12-16T21:22:43.017Z,4.00
2017-12-16T21:25:09.254Z,4.40
2017-12-16T21:27:38.565Z,4.40
2017-12-16T21:30:05.579Z,4.60
2017-12-16T21:32:31.829Z,4.60
2017-12-16T21:34:58.843Z,4.60
2017-12-16T21:37:25.059Z,4.60
2017-12-16T21:39:52.091Z,4.60
2017-12-16T21:42:18.329Z,4.60
2017-12-16T21:44:47.333Z,4.40
2017-12-16T21:47:13.549Z,4.40
2017-12-16T21:49:40.215Z,4.50
2017-12-16T21:52:06.480Z,4.50
2017-12-16T21:54:32.782Z,4.60
2017-12-16T21:56:59.101Z,4.60
2017-12-16T21:59:25.398Z,4.60
2017-12-16T22:01:51.642Z,4.50
2017-12-16T22:04:22.012Z,4.30
2017-12-16T22:06:49.433Z,4.50
2017-12-16T22:09:16.429Z,4.20
2017-12-16T22:11:42.661Z,4.20
2017-12-16T22:14:08.997Z,4.10
2017-12-16T22:16:35.273Z,4.30
2017-12-16T22:19:01.531Z,4.30
2017-12-16T22:21:27.787Z,4.30
2017-12-16T22:23:54.015Z,4.40
2017-12-16T22:26:20.986Z,4.30
2017-12-16T22:28:47.272Z,4.30
2017-12-16T22:31:13.498Z,4.30
2017-12-16T22:33:39.799Z,4.30
2017-12-16T22:36:06.061Z,4.30
2017-12-16T22:38:32.337Z,4.20
2017-12-16T22:40:58.612Z,4.30
2017-12-16T22:43:25.666Z,4.50
2017-12-16T22:45:52.662Z,4.40
2017-12-16T22:48:18.958Z,4.40
2017-12-16T22:50:45.249Z,4.40
2017-12-16T22:53:11.537Z,4.50
2017-12-16T22:55:38.587Z,4.30
2017-12-16T22:58:05.334Z,4.30
2017-12-16T23:00:32.566Z,4.40
2017-12-16T23:02:58.837Z,4.30
2017-12-16T23:05:25.085Z,4.30
2017-12-16T23:07:51.397Z,4.20
2017-12-16T23:10:17.651Z,3.90
2017-12-16T23:12:44.003Z,3.70
2017-12-16T23:15:10.330Z,3.60
2017-12-16T23:17:36.719Z,3.80
2017-12-16T23:20:03.009Z,3.80
2017-12-16T23:22:29.442Z,3.90
2017-12-16T23:24:57.450Z,3.90
2017-12-16T23:27:23.744Z,3.90
2017-12-16T23:29:50.147Z,3.80
2017-12-16T23:32:16.425Z,3.70
2017-12-16T23:34:43.407Z,3.80
2017-12-16T23:37:09.733Z,3.70
2017-12-16T23:39:36.023Z,3.70
2017-12-16T23:42:02.266Z,3.80
2017-12-16T23:44:28.591Z,3.90
2017-12-16T23:46:54.841Z,3.90
2017-12-16T23:49:21.085Z,3.90
2017-12-16T23:51:47.390Z,3.90
2017-12-16T23:54:13.717Z,3.80
2017-12-16T23:56:40.035Z,3.90
2017-12-16T23:59:06.327Z,3.90
